createdAt,value
2019-05-06T00:00:36.544Z,100798.09
2019-05-06T00:05:40.932Z,100803.22
2019-05-06T00:10:45.361Z,100804.62
2019-05-06T00:15:50.644Z,100796.27
2019-05-06T00:20:57.823Z,100786.88
2019-05-06T00:26:04.038Z,100789.86
2019-05-06T00:31:13.137Z,100781.73
2019-05-06T00:36:15.947Z,100774.89
2019-05-06T00:41:20.194Z,100768.92
2019-05-06T00:46:24.494Z,100763.94
2019-05-06T00:51:28.624Z,100757.77
2019-05-06T00:56:34.082Z,100760.61
2019-05-06T01:01:38.523Z,100758.18
2019-05-06T01:06:44.041Z,100752.46
2019-05-06T01:11:48.509Z,100747.61
2019-05-06T01:16:54.797Z,100750.77
2019-05-06T01:21:58.922Z,100754.31
2019-05-06T01:27:04.015Z,100750.82
2019-05-06T01:32:08.348Z,100748.00
2019-05-06T01:37:14.244Z,100749.56
2019-05-06T01:42:18.633Z,100750.70
2019-05-06T01:47:23.769Z,100744.19
2019-05-06T01:52:28.199Z,100742.99
2019-05-06T01:57:33.761Z,100734.98
2019-05-06T02:02:38.665Z,100736.69
2019-05-06T02:07:44.078Z,100724.30
2019-05-06T02:12:48.514Z,100721.05
2019-05-06T02:17:55.001Z,100721.05
2019-05-06T02:22:58.756Z,100721.50
2019-05-06T02:28:03.988Z,100714.20
2019-05-06T02:33:08.473Z,100714.69
2019-05-06T02:38:12.744Z,100709.80
2019-05-06T02:43:16.973Z,100709.27
2019-05-06T02:48:22.925Z,100705.69
2019-05-06T02:53:27.248Z,100705.70
2019-05-06T02:58:33.091Z,100703.08
2019-05-06T03:03:37.569Z,100705.02
2019-05-06T03:08:43.445Z,100707.89
2019-05-06T03:13:47.571Z,100702.84
2019-05-06T03:18:54.365Z,100701.33
2019-05-06T03:23:57.691Z,100704.59
2019-05-06T03:29:02.900Z,100696.21
2019-05-06T03:34:35.384Z,100689.92
2019-05-06T03:39:14.349Z,100685.99
2019-05-06T03:44:18.598Z,100675.95
2019-05-06T03:49:23.826Z,100671.20
2019-05-06T03:54:29.003Z,100670.48
2019-05-06T03:59:33.966Z,100661.97
2019-05-06T04:04:38.198Z,100666.50
2019-05-06T04:09:44.178Z,100664.55
2019-05-06T04:14:48.256Z,100656.95
2019-05-06T04:19:53.597Z,100657.65
2019-05-06T04:24:57.839Z,100649.23
2019-05-06T04:30:04.607Z,100651.57
2019-05-06T04:35:08.435Z,100645.81
2019-05-06T04:40:13.264Z,100641.05
2019-05-06T04:45:17.682Z,100642.06
2019-05-06T04:50:24.145Z,100647.06
2019-05-06T04:55:27.985Z,100650.12
2019-05-06T05:00:33.245Z,100646.55
2019-05-06T05:05:37.493Z,100639.98
2019-05-06T05:10:43.201Z,100641.70
2019-05-06T05:15:47.605Z,100627.08
2019-05-06T05:20:52.864Z,100630.91
2019-05-06T05:25:57.476Z,100618.97
2019-05-06T05:31:03.074Z,100614.41
2019-05-06T05:36:07.605Z,100607.92
2019-05-06T05:41:12.848Z,100606.47
2019-05-06T05:46:17.204Z,100607.48
2019-05-06T05:51:22.229Z,100616.40
2019-05-06T05:56:26.623Z,100605.67
2019-05-06T06:01:32.679Z,100597.48
2019-05-06T06:06:37.108Z,100596.41
2019-05-06T06:11:42.100Z,100598.00
2019-05-06T06:16:46.434Z,100594.73
2019-05-06T06:21:52.381Z,100589.83
2019-05-06T06:26:56.790Z,100595.38
2019-05-06T06:32:03.017Z,100593.08
2019-05-06T06:37:06.943Z,100595.38
2019-05-06T06:42:12.644Z,100606.42
2019-05-06T06:47:17.161Z,100595.12
2019-05-06T06:52:23.100Z,100588.70
2019-05-06T06:57:27.709Z,100596.80
2019-05-06T07:02:33.240Z,100600.86
2019-05-06T07:07:43.517Z,100601.80
2019-05-06T07:12:43.560Z,100604.88
2019-05-06T07:17:47.841Z,100606.28
2019-05-06T07:22:53.008Z,100613.77
2019-05-06T07:27:57.543Z,100618.57
2019-05-06T07:33:03.610Z,100616.86
2019-05-06T07:38:07.760Z,100620.84
2019-05-06T07:43:13.267Z,100625.31
2019-05-06T07:48:17.496Z,100617.06
2019-05-06T07:53:22.494Z,100622.16
2019-05-06T07:58:27.021Z,100623.17
2019-05-06T08:03:32.968Z,100619.98
2019-05-06T08:08:37.092Z,100619.95
2019-05-06T08:13:43.477Z,100620.86
2019-05-06T08:18:47.330Z,100612.39
2019-05-06T08:23:52.348Z,100606.01
2019-05-06T08:28:56.743Z,100609.02
2019-05-06T08:34:02.651Z,100611.98
2019-05-06T08:39:07.389Z,100613.07
2019-05-06T08:44:12.774Z,100623.47
2019-05-06T08:49:17.219Z,100619.23
2019-05-06T08:54:22.785Z,100624.41
2019-05-06T08:59:27.199Z,100628.77
2019-05-06T09:04:32.160Z,100631.84
2019-05-06T09:09:36.556Z,100634.38
2019-05-06T09:14:42.993Z,100628.79
2019-05-06T09:19:47.492Z,100628.79
2019-05-06T09:24:53.104Z,100627.99
2019-05-06T09:29:57.567Z,100627.79
2019-05-06T09:35:02.957Z,100631.38
2019-05-06T09:40:09.054Z,100631.38
2019-05-06T09:45:13.868Z,100611.20
2019-05-06T09:50:34.070Z,100626.61
2019-05-06T09:55:38.581Z,100621.61
2019-05-06T10:00:43.162Z,100619.34
2019-05-06T10:05:47.754Z,100617.45
2019-05-06T10:10:56.889Z,100623.77
2019-05-06T10:15:58.275Z,100613.44
2019-05-06T10:21:02.462Z,100605.19
2019-05-06T10:26:08.180Z,100601.26
2019-05-06T10:31:12.820Z,100600.59
2019-05-06T10:36:17.190Z,100598.59
2019-05-06T10:41:23.759Z,100596.47
2019-05-06T10:46:27.987Z,100588.97
2019-05-06T10:51:32.555Z,100583.55
2019-05-06T10:56:49.965Z,100596.11
2019-05-06T11:01:43.119Z,100592.28
2019-05-06T11:06:47.409Z,100585.30
2019-05-06T11:11:51.660Z,100581.94
2019-05-06T11:16:56.471Z,100563.08
2019-05-06T11:22:03.396Z,100572.30
2019-05-06T11:27:06.792Z,100570.34
2019-05-06T11:32:12.818Z,100566.63
2019-05-06T11:37:17.380Z,100577.16
2019-05-06T11:42:31.773Z,100568.45
2019-05-06T11:47:27.605Z,100568.69
2019-05-06T11:52:34.465Z,100562.18
2019-05-06T11:57:37.807Z,100561.23
2019-05-06T12:02:45.130Z,100557.42
2019-05-06T12:08:00.813Z,100565.97
2019-05-06T12:12:53.832Z,100563.87
2019-05-06T12:17:58.217Z,100561.94
2019-05-06T12:23:04.450Z,100564.10
2019-05-06T12:28:08.499Z,100566.42
2019-05-06T12:33:13.175Z,100559.70
2019-05-06T12:38:29.655Z,100561.91
2019-05-06T12:43:23.763Z,100556.48
2019-05-06T12:48:28.408Z,100553.48
2019-05-06T12:53:32.889Z,100539.80
2019-05-06T12:58:37.406Z,100542.48
2019-05-06T13:03:43.253Z,100535.23
2019-05-06T13:08:58.774Z,100542.40
2019-05-06T13:14:00.067Z,100548.46
2019-05-06T13:18:59.520Z,100542.63
2019-05-06T13:24:04.559Z,100532.11
2019-05-06T13:29:09.195Z,100537.08
2019-05-06T13:34:13.609Z,100532.33
2019-05-06T13:39:18.055Z,100531.05
2019-05-06T13:44:22.947Z,100525.70
2019-05-06T13:49:28.747Z,100525.03
2019-05-06T13:54:33.189Z,100513.84
2019-05-06T13:59:37.843Z,100511.48
2019-05-06T14:04:44.324Z,100514.36
2019-05-06T14:09:48.255Z,100512.69
2019-05-06T14:14:52.799Z,100509.98
2019-05-06T14:19:57.372Z,100501.45
2019-05-06T14:25:01.706Z,100495.70
2019-05-06T14:30:06.765Z,100495.95
2019-05-06T14:35:12.170Z,100493.29
2019-05-06T14:40:16.650Z,100483.08
2019-05-06T14:45:22.141Z,100473.14
2019-05-06T14:50:32.101Z,100468.35
2019-05-06T14:55:32.853Z,100472.14
2019-05-06T15:00:37.229Z,100466.78
2019-05-06T15:05:43.699Z,100460.32
2019-05-06T15:10:49.487Z,100453.75
2019-05-06T15:15:54.247Z,100444.19
2019-05-06T15:21:27.492Z,100441.37
2019-05-06T15:26:04.375Z,100440.64
2019-05-06T15:31:08.628Z,100438.08
2019-05-06T15:36:13.022Z,100429.45
2019-05-06T15:41:17.278Z,100425.58
2019-05-06T15:46:22.811Z,100425.58
2019-05-06T15:51:27.385Z,100406.81
2019-05-06T15:56:33.253Z,100414.58
2019-05-06T16:01:37.584Z,100410.23
2019-05-06T16:06:44.654Z,100407.62
2019-05-06T16:11:48.914Z,100408.29
2019-05-06T16:16:53.090Z,100401.62
2019-05-06T16:21:57.433Z,100400.97
2019-05-06T16:27:03.096Z,100398.42
2019-05-06T16:32:08.139Z,100390.17
2019-05-06T16:37:12.713Z,100381.67
2019-05-06T16:42:17.035Z,100376.95
2019-05-06T16:47:22.457Z,100373.62
2019-05-06T16:52:27.113Z,100380.09
2019-05-06T16:57:33.345Z,100378.08
2019-05-06T17:02:37.833Z,100375.55
2019-05-06T17:07:42.227Z,100369.47
2019-05-06T17:12:48.082Z,100376.01
2019-05-06T17:17:53.209Z,100374.41
2019-05-06T17:22:57.837Z,100367.87
2019-05-06T17:28:02.475Z,100365.13
2019-05-06T17:33:07.003Z,100364.98
2019-05-06T17:38:11.419Z,100359.09
2019-05-06T17:43:17.370Z,100360.13
2019-05-06T17:48:27.372Z,100364.72
2019-05-06T17:53:32.451Z,100362.63
2019-05-06T17:58:35.819Z,100352.89
2019-05-06T18:03:42.277Z,100337.83
2019-05-06T18:08:46.585Z,100338.77
2019-05-06T18:13:52.120Z,100332.19
2019-05-06T18:18:56.690Z,100330.51
2019-05-06T18:24:03.000Z,100332.67
2019-05-06T18:29:06.938Z,100326.68
2019-05-06T18:34:12.932Z,100317.95
2019-05-06T18:39:17.094Z,100310.23
2019-05-06T18:44:22.679Z,100312.23
2019-05-06T18:49:29.321Z,100304.93
2019-05-06T18:54:34.588Z,100310.05
2019-05-06T18:59:38.850Z,100300.23
2019-05-06T19:04:43.127Z,100296.98
2019-05-06T19:09:47.505Z,100286.16
2019-05-06T19:14:52.551Z,100277.63
2019-05-06T19:19:57.112Z,100279.89
2019-05-06T19:25:02.753Z,100272.41
2019-05-06T19:30:09.086Z,100268.20
2019-05-06T19:35:16.535Z,100270.72
2019-05-06T19:40:22.808Z,100261.26
2019-05-06T19:45:29.311Z,100261.94
2019-05-06T19:50:36.814Z,100259.05
2019-05-06T19:55:46.678Z,100258.36
2019-05-06T20:00:52.905Z,100264.66
2019-05-06T20:05:57.253Z,100259.61
2019-05-06T20:11:02.677Z,100247.47
2019-05-06T20:16:07.436Z,100250.14
2019-05-06T20:21:11.606Z,100257.55
2019-05-06T20:26:15.851Z,100259.88
2019-05-06T20:31:22.618Z,100259.87
2019-05-06T20:36:27.312Z,100267.41
2019-05-06T20:41:33.817Z,100254.78
2019-05-06T20:46:39.843Z,100255.67
2019-05-06T20:51:44.645Z,100248.52
2019-05-06T20:56:53.100Z,100252.16
2019-05-06T21:01:58.715Z,100250.80
2019-05-06T21:07:04.836Z,100263.28
2019-05-06T21:12:09.229Z,100259.41
2019-05-06T21:17:14.098Z,100255.91
2019-05-06T21:22:18.322Z,100245.53
2019-05-06T21:27:23.757Z,100234.28
2019-05-06T21:32:28.004Z,100232.45
2019-05-06T21:37:34.189Z,100233.17
2019-05-06T21:42:38.446Z,100235.38
2019-05-06T21:47:46.102Z,100236.03
2019-05-06T21:52:49.757Z,100231.28
2019-05-06T21:57:53.964Z,100223.35
2019-05-06T22:02:58.245Z,100220.83
2019-05-06T22:08:02.495Z,100213.22
2019-05-06T22:13:06.771Z,100207.66
2019-05-06T22:18:12.450Z,100214.42
2019-05-06T22:23:17.112Z,100216.53
2019-05-06T22:28:22.703Z,100213.02
2019-05-06T22:33:28.943Z,100199.58
2019-05-06T22:38:35.285Z,100187.89
2019-05-06T22:43:39.488Z,100193.48
2019-05-06T22:48:43.631Z,100194.29
2019-05-06T22:53:47.788Z,100197.80
2019-05-06T22:58:52.570Z,100194.48
2019-05-06T23:03:56.969Z,100203.40
2019-05-06T23:09:02.878Z,100192.73
2019-05-06T23:14:07.610Z,100188.20
2019-05-06T23:19:13.527Z,100193.02
2019-05-06T23:24:18.478Z,100195.78
2019-05-06T23:29:25.148Z,100201.63
2019-05-06T23:34:29.380Z,100185.46
2019-05-06T23:39:52.488Z,100178.44
2019-05-06T23:45:14.449Z,100176.83
2019-05-06T23:50:36.081Z,100171.25
2019-05-06T23:55:58.955Z,100158.06
